createdAt,value
2022-09-20T00:00:13.420Z,8.30
2022-09-20T00:02:41.390Z,5.80
2022-09-20T00:05:09.642Z,6.30
2022-09-20T00:07:37.721Z,7.88
2022-09-20T00:10:06.102Z,9.07
2022-09-20T00:12:33.916Z,12.38
2022-09-20T00:15:03.238Z,8.20
2022-09-20T00:17:31.316Z,8.25
2022-09-20T00:19:59.008Z,7.82
2022-09-20T00:22:27.482Z,10.02
2022-09-20T00:24:55.298Z,8.90
2022-09-20T00:27:23.092Z,10.45
2022-09-20T00:29:50.872Z,11.07
2022-09-20T00:32:19.962Z,11.68
2022-09-20T00:35:05.212Z,9.27
2022-09-20T00:37:33.372Z,10.02
2022-09-20T00:40:01.168Z,6.22
2022-09-20T00:42:29.647Z,6.47
2022-09-20T00:44:59.380Z,8.05
2022-09-20T00:47:34.227Z,10.00
2022-09-20T00:50:11.957Z,10.40
2022-09-20T00:52:40.691Z,12.23
2022-09-20T00:55:10.206Z,6.78
2022-09-20T00:57:38.847Z,8.27
2022-09-20T01:00:08.938Z,9.63
2022-09-20T01:02:43.016Z,7.28
2022-09-20T01:05:12.414Z,9.68
2022-09-20T01:07:41.435Z,9.57
2022-09-20T01:10:09.652Z,9.00
2022-09-20T01:12:40.310Z,5.00
2022-09-20T01:15:10.449Z,7.20
2022-09-20T01:17:44.153Z,5.15
2022-09-20T01:20:19.968Z,10.13
2022-09-20T01:23:13.258Z,8.05
2022-09-20T01:26:08.108Z,7.57
2022-09-20T01:28:37.769Z,4.82
2022-09-20T01:31:10.542Z,7.88
2022-09-20T01:33:46.545Z,7.07
2022-09-20T01:36:19.674Z,7.35
2022-09-20T01:38:58.664Z,5.57
2022-09-20T01:41:32.450Z,8.73
2022-09-20T01:44:13.607Z,7.80
2022-09-20T01:46:43.674Z,9.45
2022-09-20T01:49:23.724Z,5.78
2022-09-20T01:52:41.132Z,7.05
2022-09-20T01:55:53.332Z,7.45
2022-09-20T01:59:24.100Z,10.05
2022-09-20T02:02:23.045Z,11.40
2022-09-20T02:05:13.738Z,14.13
2022-09-20T02:08:07.014Z,13.63
2022-09-20T02:11:05.013Z,10.15
2022-09-20T02:13:40.890Z,12.93
2022-09-20T02:16:32.238Z,9.52
2022-09-20T02:19:34.687Z,7.75
2022-09-20T02:22:15.915Z,11.77
2022-09-20T02:24:51.845Z,9.50
2022-09-20T02:27:27.870Z,12.75
2022-09-20T02:30:10.323Z,6.25
2022-09-20T02:33:11.136Z,10.82
2022-09-20T02:35:53.791Z,10.88
2022-09-20T02:38:37.623Z,9.45
2022-09-20T02:41:49.703Z,13.00
2022-09-20T02:44:27.431Z,13.00
2022-09-20T02:47:03.051Z,13.50
2022-09-20T02:49:37.281Z,13.60
2022-09-20T02:52:16.228Z,8.18
2022-09-20T02:54:52.772Z,9.15
2022-09-20T02:57:26.201Z,10.35
2022-09-20T02:59:59.650Z,8.85
2022-09-20T03:02:31.711Z,8.82
2022-09-20T03:05:12.912Z,10.23
2022-09-20T03:07:53.888Z,14.35
2022-09-20T03:10:30.092Z,8.02
2022-09-20T03:13:16.902Z,12.82
2022-09-20T03:15:57.922Z,10.98
2022-09-20T03:18:42.367Z,10.00
2022-09-20T03:21:22.664Z,9.30
2022-09-20T03:24:03.484Z,11.63
2022-09-20T03:26:48.751Z,10.48
2022-09-20T03:32:04.586Z,10.13
2022-09-20T03:34:43.018Z,12.20
2022-09-20T03:37:35.145Z,8.93
2022-09-20T03:40:39.239Z,11.82
2022-09-20T03:43:19.078Z,13.55
2022-09-20T03:45:59.342Z,12.00
2022-09-20T03:48:55.878Z,8.88
2022-09-20T03:51:33.912Z,8.75
2022-09-20T03:54:56.944Z,6.93
2022-09-20T03:57:40.131Z,9.18
2022-09-20T04:00:25.683Z,9.90
2022-09-20T04:03:15.045Z,11.40
2022-09-20T04:05:54.245Z,9.20
2022-09-20T04:08:40.430Z,10.93
2022-09-20T04:11:16.707Z,8.50
2022-09-20T04:13:53.574Z,10.65
2022-09-20T04:16:35.799Z,7.55
2022-09-20T04:19:12.510Z,10.65
2022-09-20T04:21:47.052Z,10.32
2022-09-20T04:24:22.690Z,12.65
2022-09-20T04:26:54.523Z,8.85
2022-09-20T04:29:37.405Z,9.25
2022-09-20T04:32:16.485Z,10.65
2022-09-20T04:35:07.207Z,9.50
2022-09-20T04:37:38.559Z,10.02
2022-09-20T04:40:34.849Z,12.40
2022-09-20T04:43:52.231Z,10.20
2022-09-20T04:47:00.012Z,13.60
2022-09-20T04:50:01.476Z,12.52
2022-09-20T04:53:09.022Z,11.15
2022-09-20T04:55:55.577Z,10.15
2022-09-20T04:58:44.656Z,10.05
2022-09-20T05:01:36.731Z,8.75
2022-09-20T05:04:34.277Z,12.85
2022-09-20T05:07:56.790Z,12.38
2022-09-20T05:11:00.053Z,9.05
2022-09-20T05:13:41.123Z,9.43
2022-09-20T05:16:20.229Z,9.55
2022-09-20T05:19:12.167Z,14.75
2022-09-20T05:22:10.400Z,9.82
2022-09-20T05:25:13.927Z,10.32
2022-09-20T05:27:47.475Z,14.52
2022-09-20T05:30:24.631Z,14.75
2022-09-20T05:33:01.984Z,7.85
2022-09-20T05:35:38.291Z,11.23
2022-09-20T05:38:16.633Z,10.52
2022-09-20T05:41:01.561Z,7.93
2022-09-20T05:43:33.443Z,13.50
2022-09-20T05:46:17.556Z,10.82
2022-09-20T05:48:56.769Z,9.63
2022-09-20T05:51:48.731Z,8.68
2022-09-20T05:54:30.190Z,10.77
2022-09-20T05:57:13.629Z,7.78
2022-09-20T05:59:57.768Z,10.05
2022-09-20T06:02:36.591Z,11.02
2022-09-20T06:05:14.141Z,11.30
2022-09-20T06:07:56.751Z,7.95
2022-09-20T06:10:41.771Z,12.15
2022-09-20T06:13:24.261Z,12.98
2022-09-20T06:16:00.716Z,8.02
2022-09-20T06:18:37.372Z,6.85
2022-09-20T06:21:15.072Z,11.43
2022-09-20T06:23:43.044Z,8.52
2022-09-20T06:26:17.288Z,14.15
2022-09-20T06:28:48.398Z,10.68
2022-09-20T06:31:17.323Z,9.70
2022-09-20T06:33:53.653Z,9.05
2022-09-20T06:36:44.681Z,11.52
2022-09-20T06:39:40.729Z,12.10
2022-09-20T06:42:10.544Z,11.00
2022-09-20T06:44:41.185Z,11.32
2022-09-20T06:47:10.402Z,13.27
2022-09-20T06:49:41.790Z,10.60
2022-09-20T06:52:13.641Z,10.27
2022-09-20T06:54:45.754Z,14.50
2022-09-20T06:57:16.587Z,10.82
2022-09-20T06:59:45.574Z,13.00
2022-09-20T07:02:13.370Z,12.00
2022-09-20T07:04:43.570Z,11.23
2022-09-20T07:07:18.267Z,8.27
2022-09-20T07:09:46.135Z,10.97
2022-09-20T07:12:14.215Z,14.55
2022-09-20T07:14:42.972Z,13.00
2022-09-20T07:17:11.137Z,13.18
2022-09-20T07:19:38.908Z,10.32
2022-09-20T07:22:08.193Z,12.50
2022-09-20T07:24:36.370Z,9.25
2022-09-20T07:27:06.448Z,12.98
2022-09-20T07:29:35.162Z,9.80
2022-09-20T07:32:03.332Z,7.80
2022-09-20T07:34:32.072Z,8.10
2022-09-20T07:37:00.173Z,7.70
2022-09-20T07:39:29.307Z,10.82
2022-09-20T07:41:57.277Z,12.60
2022-09-20T07:44:25.435Z,10.63
2022-09-20T07:46:54.725Z,11.57
2022-09-20T07:49:23.650Z,13.15
2022-09-20T07:51:52.156Z,12.55
2022-09-20T07:54:20.718Z,11.32
2022-09-20T07:56:49.956Z,10.18
2022-09-20T07:59:17.939Z,8.90
2022-09-20T08:01:45.809Z,11.02
2022-09-20T08:04:14.544Z,10.95
2022-09-20T08:06:44.437Z,7.20
2022-09-20T08:09:13.390Z,10.25
2022-09-20T08:11:43.445Z,8.88
2022-09-20T08:14:15.165Z,8.88
2022-09-20T08:16:45.523Z,10.68
2022-09-20T08:19:16.994Z,8.10
2022-09-20T08:21:45.068Z,5.55
2022-09-20T08:24:13.254Z,8.10
2022-09-20T08:26:41.470Z,10.63
2022-09-20T08:29:09.536Z,6.60
2022-09-20T08:31:42.329Z,7.72
2022-09-20T08:34:12.549Z,9.57
2022-09-20T08:36:42.077Z,9.77
2022-09-20T08:42:08.783Z,6.68
2022-09-20T08:44:46.866Z,6.93
2022-09-20T08:47:22.222Z,7.53
2022-09-20T08:49:56.690Z,4.40
2022-09-20T08:52:36.253Z,6.88
2022-09-20T08:55:13.709Z,7.97
2022-09-20T08:57:41.442Z,5.57
2022-09-20T09:00:18.590Z,6.90
2022-09-20T09:02:48.989Z,6.82
2022-09-20T09:05:35.590Z,5.95
2022-09-20T09:08:08.853Z,7.28
2022-09-20T09:10:46.356Z,9.60
2022-09-20T09:13:25.879Z,7.35
2022-09-20T09:15:58.243Z,9.73
2022-09-20T09:18:36.445Z,9.30
2022-09-20T09:21:05.847Z,7.72
2022-09-20T09:23:41.489Z,9.02
2022-09-20T09:26:17.258Z,4.25
2022-09-20T09:28:45.078Z,9.27
2022-09-20T09:31:15.919Z,5.05
2022-09-20T09:33:48.298Z,8.25
2022-09-20T09:36:18.990Z,10.25
2022-09-20T09:38:48.057Z,7.20
2022-09-20T09:41:26.245Z,9.18
2022-09-20T09:44:02.288Z,7.82
2022-09-20T09:46:33.261Z,6.68
2022-09-20T09:49:15.401Z,10.93
2022-09-20T09:52:01.577Z,7.25
2022-09-20T09:54:32.125Z,7.72
2022-09-20T09:57:15.822Z,6.07
2022-09-20T09:59:57.559Z,5.30
2022-09-20T10:02:46.847Z,6.68
2022-09-20T10:05:20.137Z,5.72
2022-09-20T10:07:55.873Z,6.82
2022-09-20T10:10:36.011Z,8.80
2022-09-20T10:13:16.684Z,7.15
2022-09-20T10:15:51.824Z,5.10
2022-09-20T10:18:32.832Z,5.30
2022-09-20T10:21:10.046Z,4.72
2022-09-20T10:24:03.662Z,6.60
2022-09-20T10:26:51.658Z,6.55
2022-09-20T10:29:32.962Z,9.85
2022-09-20T10:32:15.330Z,5.35
2022-09-20T10:35:14.813Z,7.70
2022-09-20T10:38:00.719Z,7.45
2022-09-20T10:40:47.949Z,7.90
2022-09-20T10:43:28.912Z,5.13
2022-09-20T10:46:30.967Z,7.07
2022-09-20T10:49:18.061Z,4.28
2022-09-20T10:51:55.816Z,4.13
2022-09-20T10:54:40.103Z,6.53
2022-09-20T10:57:26.327Z,4.83
2022-09-20T11:00:01.840Z,9.57
2022-09-20T11:05:25.551Z,4.55
2022-09-20T11:08:04.425Z,3.67
2022-09-20T11:10:37.854Z,6.63
2022-09-20T11:13:11.932Z,7.43
2022-09-20T11:15:45.236Z,6.20
2022-09-20T11:18:23.620Z,4.43
2022-09-20T11:20:59.368Z,9.50
2022-09-20T11:23:42.003Z,7.45
2022-09-20T11:26:16.351Z,9.57
2022-09-20T11:28:49.349Z,4.87
2022-09-20T11:31:24.515Z,6.50
2022-09-20T11:36:27.620Z,8.25
2022-09-20T11:38:58.668Z,5.80
2022-09-20T11:41:29.538Z,6.10
2022-09-20T11:44:01.988Z,5.28
2022-09-20T11:46:34.588Z,5.68
2022-09-20T11:49:07.736Z,4.75
2022-09-20T11:52:12.793Z,4.00
2022-09-20T11:55:04.840Z,6.95
2022-09-20T11:57:34.352Z,4.75
2022-09-20T12:00:04.172Z,7.05
2022-09-20T12:02:45.614Z,5.55
2022-09-20T12:05:27.872Z,4.97
2022-09-20T12:07:59.309Z,6.30
2022-09-20T12:10:30.457Z,6.47
2022-09-20T12:13:02.163Z,7.18
2022-09-20T12:15:33.123Z,9.68
2022-09-20T12:18:29.788Z,5.47
2022-09-20T12:21:15.382Z,4.80
2022-09-20T12:24:21.653Z,6.13
2022-09-20T12:26:51.264Z,5.10
2022-09-20T12:29:57.265Z,6.05
2022-09-20T12:32:55.004Z,4.60
2022-09-20T12:36:14.160Z,4.80
2022-09-20T12:38:57.882Z,7.45
2022-09-20T12:41:28.556Z,3.88
2022-09-20T12:44:04.625Z,3.67
2022-09-20T12:49:41.038Z,5.82
2022-09-20T12:52:41.453Z,5.00
2022-09-20T12:55:11.805Z,2.53
2022-09-20T12:57:40.926Z,3.10
2022-09-20T13:00:28.725Z,3.55
2022-09-20T13:03:02.411Z,3.08
2022-09-20T13:05:38.021Z,3.35
2022-09-20T13:08:20.206Z,2.78
2022-09-20T13:10:51.733Z,4.28
2022-09-20T13:13:31.653Z,4.15
2022-09-20T13:16:05.421Z,2.08
2022-09-20T13:18:37.140Z,2.38
2022-09-20T13:21:08.386Z,4.93
2022-09-20T13:23:47.458Z,1.90
2022-09-20T13:26:17.229Z,1.77
2022-09-20T13:28:51.679Z,3.40
2022-09-20T13:31:28.010Z,2.10
2022-09-20T13:34:14.124Z,2.08
2022-09-20T13:36:42.737Z,2.85
2022-09-20T13:39:10.517Z,2.28
2022-09-20T13:41:38.731Z,2.42
2022-09-20T13:44:07.217Z,3.17
2022-09-20T13:46:35.298Z,1.58
2022-09-20T13:49:20.739Z,2.95
2022-09-20T13:51:49.049Z,5.18
2022-09-20T13:54:27.342Z,1.17
2022-09-20T13:56:57.755Z,3.67
2022-09-20T13:59:35.929Z,4.28
2022-09-20T14:02:04.228Z,2.67
2022-09-20T14:04:33.375Z,5.63
2022-09-20T14:07:02.012Z,5.50
2022-09-20T14:09:34.045Z,5.10
2022-09-20T14:12:04.477Z,4.50
2022-09-20T14:14:34.267Z,5.28
2022-09-20T14:17:05.701Z,4.90
2022-09-20T14:19:41.597Z,5.30
2022-09-20T14:22:18.926Z,5.70
2022-09-20T14:24:59.437Z,4.40
2022-09-20T14:27:27.446Z,5.85
2022-09-20T14:29:56.320Z,4.35
2022-09-20T14:32:44.353Z,5.15
2022-09-20T14:35:20.135Z,8.15
2022-09-20T14:37:50.507Z,5.07
2022-09-20T14:40:23.594Z,6.55
2022-09-20T14:42:55.543Z,5.22
2022-09-20T14:45:27.275Z,3.58
2022-09-20T14:48:06.694Z,4.43
2022-09-20T14:50:42.073Z,3.70
2022-09-20T14:53:29.761Z,5.13
2022-09-20T14:56:00.224Z,3.67
2022-09-20T14:58:28.480Z,3.70
2022-09-20T15:01:01.237Z,4.25
2022-09-20T15:03:32.281Z,3.60
2022-09-20T15:06:01.596Z,3.22
2022-09-20T15:08:29.480Z,1.98
2022-09-20T15:10:57.261Z,2.25
2022-09-20T15:13:25.025Z,3.33
2022-09-20T15:15:54.767Z,3.53
2022-09-20T15:18:26.227Z,3.90
2022-09-20T15:20:54.812Z,2.88
2022-09-20T15:23:23.891Z,2.40
2022-09-20T15:25:53.079Z,2.25
2022-09-20T15:28:21.462Z,2.25
2022-09-20T15:30:51.411Z,4.50
2022-09-20T15:33:20.679Z,2.20
2022-09-20T15:35:49.338Z,2.63
2022-09-20T15:38:18.617Z,1.10
2022-09-20T15:40:50.041Z,3.50
2022-09-20T15:43:21.807Z,3.60
2022-09-20T15:45:51.400Z,3.03
2022-09-20T15:48:21.521Z,3.42
2022-09-20T15:51:02.231Z,0.98
2022-09-20T15:53:33.493Z,3.67
2022-09-20T15:56:04.542Z,3.13
2022-09-20T15:58:36.169Z,3.45
2022-09-20T16:01:06.492Z,6.72
2022-09-20T16:03:34.984Z,4.25
2022-09-20T16:06:04.757Z,3.78
2022-09-20T16:08:33.748Z,4.90
2022-09-20T16:11:04.047Z,7.35
2022-09-20T16:13:31.900Z,5.35
2022-09-20T16:16:01.192Z,4.72
2022-09-20T16:18:47.552Z,4.70
2022-09-20T16:21:16.981Z,4.30
2022-09-20T16:23:49.065Z,3.22
2022-09-20T16:26:19.623Z,1.67
2022-09-20T16:28:47.967Z,1.90
2022-09-20T16:31:36.579Z,3.55
2022-09-20T16:34:05.721Z,3.85
2022-09-20T16:36:34.039Z,4.20
2022-09-20T16:39:01.754Z,3.75
2022-09-20T16:41:32.349Z,5.18
2022-09-20T16:44:00.421Z,2.63
2022-09-20T16:46:28.559Z,5.80
2022-09-20T16:48:59.257Z,5.50
2022-09-20T16:51:33.479Z,4.18
2022-09-20T16:54:03.604Z,4.75
2022-09-20T16:56:34.809Z,4.90
2022-09-20T16:59:03.714Z,6.05
2022-09-20T17:01:32.399Z,5.38
2022-09-20T17:04:00.584Z,5.07
2022-09-20T17:06:28.805Z,8.63
2022-09-20T17:08:59.174Z,5.55
2022-09-20T17:11:28.794Z,3.88
2022-09-20T17:13:58.311Z,4.55
2022-09-20T17:16:27.796Z,5.90
2022-09-20T17:18:56.923Z,6.72
2022-09-20T17:21:25.848Z,4.68
2022-09-20T17:23:55.869Z,4.68
2022-09-20T17:26:25.731Z,5.95
2022-09-20T17:28:58.149Z,4.50
2022-09-20T17:31:30.150Z,6.15
2022-09-20T17:34:00.198Z,4.72
2022-09-20T17:36:29.717Z,7.13
2022-09-20T17:39:03.890Z,4.13
2022-09-20T17:41:33.794Z,12.07
2022-09-20T17:44:07.863Z,6.38
2022-09-20T17:46:38.642Z,8.18
2022-09-20T17:49:09.359Z,4.97
2022-09-20T17:51:39.277Z,4.18
2022-09-20T17:54:08.408Z,4.97
2022-09-20T17:56:37.024Z,5.15
2022-09-20T17:59:06.652Z,5.85
2022-09-20T18:01:36.908Z,2.08
2022-09-20T18:04:08.115Z,5.22
2022-09-20T18:06:37.811Z,2.67
2022-09-20T18:09:07.522Z,4.10
2022-09-20T18:11:36.858Z,3.65
2022-09-20T18:14:06.330Z,6.22
2022-09-20T18:16:34.982Z,6.03
2022-09-20T18:19:03.023Z,5.13
2022-09-20T18:21:35.384Z,6.72
2022-09-20T18:24:05.743Z,5.68
2022-09-20T18:26:33.829Z,5.10
2022-09-20T18:29:03.118Z,4.35
2022-09-20T18:31:35.710Z,6.57
2022-09-20T18:34:05.296Z,4.00
2022-09-20T18:36:37.196Z,5.03
2022-09-20T18:39:06.030Z,5.15
2022-09-20T18:41:35.858Z,5.53
2022-09-20T18:44:07.546Z,5.93
2022-09-20T18:46:37.980Z,9.85
2022-09-20T18:49:09.325Z,5.63
2022-09-20T18:51:40.352Z,7.22
2022-09-20T18:54:09.972Z,6.43
2022-09-20T18:56:39.658Z,8.73
2022-09-20T18:59:13.989Z,8.45
2022-09-20T19:02:05.118Z,3.10
2022-09-20T19:04:53.169Z,29.02
2022-09-20T19:07:29.052Z,10.90
2022-09-20T19:10:02.775Z,7.25
2022-09-20T19:12:36.635Z,6.68
2022-09-20T19:15:21.394Z,7.35
2022-09-20T19:18:14.343Z,7.47
2022-09-20T19:20:47.618Z,7.35
2022-09-20T19:23:34.062Z,8.90
2022-09-20T19:26:08.887Z,7.65
2022-09-20T19:28:37.327Z,5.40
2022-09-20T19:31:05.689Z,6.10
2022-09-20T19:33:33.840Z,9.10
2022-09-20T19:36:03.128Z,9.48
2022-09-20T19:38:42.669Z,10.40
2022-09-20T19:41:28.683Z,6.65
2022-09-20T19:44:15.405Z,9.75
2022-09-20T19:47:06.481Z,5.55
2022-09-20T19:49:48.393Z,7.18
2022-09-20T19:52:16.689Z,6.68
2022-09-20T19:54:46.870Z,8.48
2022-09-20T19:57:20.871Z,6.50
2022-09-20T19:59:50.496Z,6.65
2022-09-20T20:02:19.094Z,7.18
2022-09-20T20:04:47.290Z,9.13
2022-09-20T20:07:27.728Z,7.25
2022-09-20T20:10:07.898Z,8.88
2022-09-20T20:12:45.659Z,17.17
2022-09-20T20:15:22.871Z,10.07
2022-09-20T20:18:02.095Z,12.02
2022-09-20T20:20:33.908Z,8.77
2022-09-20T20:23:41.271Z,14.25
2022-09-20T20:26:18.102Z,14.50
2022-09-20T20:28:45.839Z,15.25
2022-09-20T20:31:14.251Z,13.30
2022-09-20T20:33:43.333Z,11.50
2022-09-20T20:36:11.896Z,6.85
2022-09-20T20:38:40.849Z,7.68
2022-09-20T20:41:11.842Z,14.68
2022-09-20T20:43:41.185Z,10.63
2022-09-20T20:46:10.712Z,13.15
2022-09-20T20:48:38.622Z,10.90
2022-09-20T20:51:09.495Z,8.95
2022-09-20T20:53:39.824Z,8.18
2022-09-20T20:56:12.149Z,9.00
2022-09-20T20:58:41.969Z,12.90
2022-09-20T21:01:12.571Z,10.02
2022-09-20T21:03:41.627Z,8.20
2022-09-20T21:06:11.139Z,12.07
2022-09-20T21:08:40.540Z,11.65
2022-09-20T21:11:11.661Z,8.57
2022-09-20T21:13:40.472Z,9.13
2022-09-20T21:16:11.065Z,7.82
2022-09-20T21:18:39.816Z,8.23
2022-09-20T21:21:16.132Z,5.65
2022-09-20T21:23:44.976Z,9.35
2022-09-20T21:26:15.921Z,7.15
2022-09-20T21:28:45.985Z,8.05
2022-09-20T21:31:14.201Z,7.30
2022-09-20T21:33:43.632Z,9.82
2022-09-20T21:36:13.825Z,9.18
2022-09-20T21:38:42.635Z,6.13
2022-09-20T21:41:12.228Z,9.45
2022-09-20T21:43:42.850Z,10.43
2022-09-20T21:46:14.776Z,8.52
2022-09-20T21:48:42.875Z,11.35
2022-09-20T21:51:12.370Z,8.55
2022-09-20T21:53:40.647Z,9.38
2022-09-20T21:56:10.160Z,8.40
2022-09-20T21:58:39.984Z,9.50
2022-09-20T22:01:11.519Z,12.52
2022-09-20T22:03:41.475Z,10.88
2022-09-20T22:06:11.667Z,9.40
2022-09-20T22:08:40.712Z,11.20
2022-09-20T22:11:12.289Z,13.90
2022-09-20T22:13:43.587Z,11.40
2022-09-20T22:16:14.941Z,9.93
2022-09-20T22:18:44.716Z,10.32
2022-09-20T22:21:14.207Z,10.55
2022-09-20T22:23:43.253Z,8.30
2022-09-20T22:26:13.218Z,14.07
2022-09-20T22:28:41.693Z,20.13
2022-09-20T22:31:11.671Z,18.85
2022-09-20T22:33:44.254Z,22.15
2022-09-20T22:36:15.199Z,19.60
2022-09-20T22:38:43.983Z,13.07
2022-09-20T22:41:12.872Z,15.20
2022-09-20T22:43:41.710Z,9.07
2022-09-20T22:46:12.239Z,11.10
2022-09-20T22:48:42.482Z,12.60
2022-09-20T22:51:11.746Z,10.00
2022-09-20T22:53:39.855Z,10.48
2022-09-20T22:56:09.665Z,9.20
2022-09-20T22:58:38.563Z,10.38
2022-09-20T23:01:08.085Z,8.48
2022-09-20T23:03:36.154Z,9.95
2022-09-20T23:06:05.910Z,6.95
2022-09-20T23:08:34.722Z,7.30
2022-09-20T23:11:03.713Z,11.27
2022-09-20T23:13:32.040Z,9.10
2022-09-20T23:16:00.123Z,8.80
2022-09-20T23:18:28.039Z,6.40
2022-09-20T23:21:00.252Z,13.02
2022-09-20T23:23:30.202Z,5.80
2022-09-20T23:26:07.411Z,8.80
2022-09-20T23:28:36.150Z,9.52
2022-09-20T23:31:05.290Z,9.40
2022-09-20T23:33:33.317Z,8.95
2022-09-20T23:36:01.555Z,7.78
2022-09-20T23:38:30.865Z,7.15
2022-09-20T23:41:03.920Z,10.93
2022-09-20T23:43:31.741Z,8.07
2022-09-20T23:45:59.601Z,11.98
2022-09-20T23:48:27.489Z,11.40
2022-09-20T23:50:55.983Z,12.07
2022-09-20T23:53:23.796Z,11.05
2022-09-20T23:55:53.036Z,12.90
2022-09-20T23:58:20.861Z,9.00
